Time;durP1;ratioP1;P1;durP2;ratioP2;P2;SDS_P1;SDS_P2;PMS_P1;PMS_P2;Temp;Humidity;BMP_temperature;BMP_pressure;BME280_temperature;BME280_humidity;BME280_pressure;Samples;Min_cycle;Max_cycle;Signal;HPM_P1;HPM_P2
2022/04/25 00:01:53;;;;;;;11.80;9.33;;;10.30;1.00;;;;;;5069070;28;20202;-59
2022/04/25 00:04:21;;;;;;;14.57;8.97;;;10.30;1.00;;;;;;5065735;28;20690;-59
2022/04/25 00:06:47;;;;;;;10.63;8.80;;;10.30;1.00;;;;;;5050733;28;20260;-59
2022/04/25 00:09:14;;;;;;;11.00;8.97;;;10.40;1.00;;;;;;5066971;28;20211;-59
2022/04/25 00:11:44;;;;;;;10.90;9.13;;;10.60;1.00;;;;;;5058115;28;20191;-58
2022/04/25 00:14:14;;;;;;;11.53;9.53;;;10.50;1.00;;;;;;5051434;28;20799;-58
2022/04/25 00:16:41;;;;;;;12.67;9.40;;;10.50;1.00;;;;;;5050078;28;20234;-58
2022/04/25 00:19:09;;;;;;;11.60;9.73;;;10.50;1.00;;;;;;5067628;28;20213;-58
2022/04/25 00:21:36;;;;;;;11.93;9.27;;;10.50;1.00;;;;;;5068884;28;20245;-59
2022/04/25 00:24:03;;;;;;;10.10;9.00;;;10.30;1.00;;;;;;5067856;28;20206;-59
2022/04/25 00:26:30;;;;;;;11.83;8.90;;;10.20;1.00;;;;;;5065880;28;20201;-59
2022/04/25 00:28:57;;;;;;;13.37;9.63;;;10.00;1.00;;;;;;5069069;28;20339;-59
2022/04/25 00:31:25;;;;;;;12.23;9.67;;;10.00;1.00;;;;;;5069138;28;20274;-59
2022/04/25 00:33:52;;;;;;;12.80;9.90;;;9.90;1.00;;;;;;5068261;28;20197;-59
2022/04/25 00:36:19;;;;;;;13.17;10.00;;;9.80;19.70;;;;;;5069799;28;20194;-59
2022/04/25 00:38:47;;;;;;;12.00;9.57;;;9.80;81.00;;;;;;5051701;28;20226;-59
2022/04/25 00:41:16;;;;;;;11.97;9.60;;;9.70;99.90;;;;;;5069169;28;20230;-59
2022/04/25 00:43:43;;;;;;;12.10;10.17;;;9.70;99.90;;;;;;5069701;28;20217;-59
2022/04/25 00:46:21;;;;;;;12.97;10.70;;;9.60;99.90;;;;;;5067667;28;20199;-59
2022/04/25 00:48:48;;;;;;;12.03;10.07;;;9.60;99.90;;;;;;5066109;28;20210;-59
2022/04/25 00:51:16;;;;;;;12.40;10.20;;;9.60;99.90;;;;;;5051939;28;20284;-59
2022/04/25 00:53:49;;;;;;;14.80;10.93;;;9.60;99.90;;;;;;5068493;28;20187;-59
2022/04/25 00:56:17;;;;;;;12.63;10.30;;;9.50;99.90;;;;;;5068532;28;20195;-59
2022/04/25 00:58:45;;;;;;;12.60;9.70;;;9.50;99.90;;;;;;5049930;28;20639;-59
2022/04/25 01:01:15;;;;;;;11.47;9.90;;;9.50;99.90;;;;;;5068964;28;20191;-58
2022/04/25 01:03:42;;;;;;;14.43;10.23;;;9.50;99.90;;;;;;5066925;28;20205;-58
2022/04/25 01:06:09;;;;;;;10.67;9.53;;;9.50;99.90;;;;;;5049429;28;20241;-60
2022/04/25 01:08:37;;;;;;;12.23;8.77;;;9.50;99.90;;;;;;5049364;28;20707;-59
2022/04/25 01:11:05;;;;;;;12.13;8.40;;;9.40;59.90;;;;;;5069314;28;20202;-59
2022/04/25 01:13:32;;;;;;;9.13;8.03;;;9.40;50.40;;;;;;5068320;28;20222;-59
2022/04/25 01:16:03;;;;;;;8.50;6.63;;;9.40;33.20;;;;;;5068447;28;20260;-59
2022/04/25 01:18:30;;;;;;;6.83;6.13;;;9.30;1.00;;;;;;5032836;28;20232;-60
2022/04/25 01:20:58;;;;;;;6.50;5.83;;;9.30;1.00;;;;;;5034776;28;20259;-59
2022/04/25 01:29:00;;;;;;;6.80;6.00;;;9.30;1.00;;;;;;5069168;28;20194;-60
2022/04/25 01:31:29;;;;;;;7.00;5.93;;;9.20;1.00;;;;;;5072194;28;20565;-59
2022/04/25 01:33:56;;;;;;;7.43;5.83;;;9.10;1.00;;;;;;5071483;28;20689;-59
2022/04/25 01:36:24;;;;;;;9.07;5.90;;;9.10;1.00;;;;;;5071143;28;20191;-59
2022/04/25 01:38:52;;;;;;;5.70;5.20;;;9.10;1.00;;;;;;5071433;28;20750;-60
2022/04/25 01:41:22;;;;;;;7.50;6.37;;;9.20;1.00;;;;;;5070087;28;20234;-61
2022/04/25 01:43:49;;;;;;;8.17;5.93;;;9.10;1.00;;;;;;5071403;28;20203;-59
2022/04/25 01:46:18;;;;;;;5.13;4.63;;;9.10;1.00;;;;;;5072184;28;20191;-59
2022/04/25 01:48:48;;;;;;;4.80;4.40;;;9.10;1.00;;;;;;5069435;28;20259;-59
2022/04/25 01:51:15;;;;;;;5.33;4.83;;;8.90;1.00;;;;;;5071158;28;20211;-58
2022/04/25 01:53:42;;;;;;;4.80;4.30;;;8.90;1.00;;;;;;5070668;28;20222;-59
2022/04/25 01:56:12;;;;;;;5.97;4.20;;;8.90;1.00;;;;;;5070148;28;20608;-59
2022/04/25 01:58:39;;;;;;;4.30;3.53;;;8.80;1.00;;;;;;5071138;28;20211;-60
2022/04/25 02:01:07;;;;;;;6.57;4.57;;;8.80;1.00;;;;;;5053334;28;20202;-59
2022/04/25 02:03:35;;;;;;;5.87;4.00;;;8.70;1.00;;;;;;5068976;28;20206;-59
2022/04/25 02:06:02;;;;;;;4.70;4.00;;;8.70;1.00;;;;;;5071801;28;20199;-59
2022/04/25 02:08:29;;;;;;;4.67;4.23;;;8.70;1.00;;;;;;5070407;28;20202;-59
2022/04/25 02:11:38;;;;;;;6.20;3.87;;;8.70;1.00;;;;;;5068883;28;20554;-60
2022/04/25 02:13:46;;;;;;;4.70;4.30;;;8.80;1.00;;;;;;5061469;28;20247;-58
2022/04/25 02:16:14;;;;;;;4.30;3.80;;;8.80;1.00;;;;;;5070888;28;20678;-58
2022/04/25 02:18:41;;;;;;;3.87;3.47;;;8.80;1.00;;;;;;5069286;28;20282;-57
2022/04/25 02:21:08;;;;;;;4.17;3.77;;;8.80;1.00;;;;;;5068037;28;21000;-57
2022/04/25 02:23:36;;;;;;;5.10;4.47;;;8.80;1.00;;;;;;5049712;28;20199;-57
2022/04/25 02:26:03;;;;;;;4.00;3.70;;;8.80;1.00;;;;;;5070650;28;20206;-57
2022/04/25 02:28:29;;;;;;;6.43;4.20;;;8.90;1.00;;;;;;5070121;28;20827;-58
2022/04/25 02:30:58;;;;;;;4.83;3.90;;;8.90;1.00;;;;;;5070134;28;20211;-59
2022/04/25 02:33:25;;;;;;;4.50;4.10;;;8.80;1.00;;;;;;5069889;28;20221;-59
2022/04/25 02:35:52;;;;;;;4.43;3.80;;;8.80;1.00;;;;;;5070658;28;20199;-58
2022/04/25 02:38:19;;;;;;;4.23;3.83;;;8.80;1.00;;;;;;5061236;28;20276;-58
2022/04/25 02:40:46;;;;;;;4.40;3.90;;;8.80;1.00;;;;;;5068109;28;20898;-59
2022/04/25 02:43:13;;;;;;;4.87;3.97;;;8.80;1.00;;;;;;5068380;28;20202;-58
2022/04/25 02:45:40;;;;;;;6.10;5.23;;;8.80;1.00;;;;;;5068588;28;20226;-59
2022/04/25 02:48:07;;;;;;;5.30;4.80;;;8.80;1.00;;;;;;5069975;28;20282;-59
2022/04/25 02:50:34;;;;;;;5.50;4.50;;;8.90;1.00;;;;;;5051685;28;20701;-58
2022/04/25 02:53:01;;;;;;;5.07;4.57;;;8.80;1.00;;;;;;5070261;28;20230;-58
2022/04/25 02:55:28;;;;;;;4.80;4.40;;;8.80;1.00;;;;;;5069356;28;20252;-58
2022/04/25 02:57:55;;;;;;;5.00;4.50;;;8.70;1.00;;;;;;5070737;28;20290;-58
2022/04/25 03:00:22;;;;;;;6.97;5.57;;;8.60;1.00;;;;;;5068822;28;20661;-59
2022/04/25 03:02:49;;;;;;;5.77;5.17;;;8.60;1.00;;;;;;5067328;28;20199;-59
2022/04/25 03:05:16;;;;;;;5.20;4.70;;;8.60;1.00;;;;;;5049864;28;20201;-58
2022/04/25 03:07:43;;;;;;;4.90;4.43;;;8.50;1.00;;;;;;5054409;28;20194;-59
2022/04/25 03:10:10;;;;;;;5.20;4.70;;;8.50;1.00;;;;;;5069958;28;20219;-57
2022/04/25 03:12:38;;;;;;;5.40;4.90;;;8.50;1.00;;;;;;5065538;28;20654;-57
2022/04/25 03:15:08;;;;;;;6.57;4.53;;;8.40;1.00;;;;;;5050249;28;20206;-58
2022/04/25 03:17:34;;;;;;;10.03;7.80;;;8.40;1.00;;;;;;5048903;28;20218;-58
2022/04/25 03:20:02;;;;;;;8.53;6.83;;;8.40;1.00;;;;;;5067648;28;20199;-59
2022/04/25 03:22:29;;;;;;;7.57;5.27;;;8.40;1.00;;;;;;5066561;28;20195;-58
2022/04/25 03:24:56;;;;;;;5.10;4.60;;;8.30;1.00;;;;;;5068573;28;20331;-57
2022/04/25 03:27:23;;;;;;;5.67;4.73;;;8.20;1.00;;;;;;5067707;28;20222;-58
2022/04/25 03:29:50;;;;;;;5.90;4.37;;;8.20;1.00;;;;;;5049105;28;20575;-58
2022/04/25 03:32:17;;;;;;;5.37;4.53;;;8.10;1.00;;;;;;5067322;28;20199;-58
2022/04/25 03:34:44;;;;;;;6.33;5.63;;;8.10;1.00;;;;;;5066489;28;20244;-58
2022/04/25 03:37:13;;;;;;;5.33;4.70;;;8.10;3.10;;;;;;5067777;28;20226;-58
2022/04/25 03:39:40;;;;;;;6.13;4.73;;;8.10;10.90;;;;;;5047018;28;20218;-58
2022/04/25 03:42:07;;;;;;;5.30;4.63;;;8.00;24.00;;;;;;5047896;28;20203;-58
2022/04/25 03:44:34;;;;;;;5.63;5.10;;;8.00;65.30;;;;;;5051571;28;20234;-58
2022/04/25 03:47:01;;;;;;;5.90;5.30;;;7.90;77.50;;;;;;5033093;28;20247;-58
2022/04/25 03:49:28;;;;;;;6.70;5.43;;;8.00;84.90;;;;;;5033410;28;20207;-59
2022/04/25 03:51:55;;;;;;;5.63;5.03;;;7.90;95.50;;;;;;5055030;28;20280;-59
2022/04/25 03:57:10;;;;;;;5.60;5.10;;;8.00;98.30;;;;;;5049556;28;21169;-59
2022/04/25 03:59:40;;;;;;;5.83;5.10;;;8.00;44.70;;;;;;5051896;28;20199;-59
2022/04/25 04:02:07;;;;;;;5.43;4.93;;;8.00;35.60;;;;;;5065018;28;20782;-58
2022/04/25 04:04:34;;;;;;;6.10;5.40;;;8.00;21.00;;;;;;5066144;28;20210;-58
2022/04/25 04:07:02;;;;;;;5.67;5.07;;;8.00;13.80;;;;;;5051900;28;20689;-58
2022/04/25 04:12:15;;;;;;;7.43;5.20;;;7.90;12.60;;;;;;5067337;28;20286;-58
2022/04/25 04:14:43;;;;;;;8.10;5.20;;;7.90;13.70;;;;;;5068683;28;20187;-59
2022/04/25 04:17:11;;;;;;;6.27;5.67;;;7.90;1.00;;;;;;5067090;28;20220;-58
2022/04/25 04:19:39;;;;;;;5.97;5.37;;;7.90;1.00;;;;;;5065266;28;20194;-57
2022/04/25 04:22:06;;;;;;;7.07;5.73;;;7.90;1.00;;;;;;5065525;28;20210;-57
2022/04/25 04:24:34;;;;;;;7.93;5.30;;;7.90;1.00;;;;;;5067547;28;20253;-58
2022/04/25 04:27:03;;;;;;;8.03;5.60;;;7.90;1.00;;;;;;5046448;28;20198;-58
2022/04/25 04:29:35;;;;;;;7.80;5.80;;;7.90;1.00;;;;;;5048943;28;20790;-58
2022/04/25 04:32:05;;;;;;;9.60;5.93;;;7.90;1.00;;;;;;5066152;28;20218;-58
2022/04/25 04:34:34;;;;;;;8.20;6.57;;;7.90;1.00;;;;;;5063837;28;20283;-58
2022/04/25 04:37:02;;;;;;;8.17;6.30;;;7.90;1.00;;;;;;5063105;28;20195;-57
2022/04/25 04:39:31;;;;;;;9.47;6.37;;;7.90;14.90;;;;;;5064405;28;20211;-56
2022/04/25 04:41:58;;;;;;;8.90;6.87;;;8.00;1.00;;;;;;5068655;28;20286;-57
2022/04/25 04:44:25;;;;;;;7.43;6.73;;;8.10;1.00;;;;;;5063631;28;20206;-57
2022/04/25 04:46:52;;;;;;;7.73;6.70;;;8.20;1.00;;;;;;5047774;28;20347;-57
2022/04/25 04:49:19;;;;;;;8.90;7.67;;;8.80;1.00;;;;;;5060805;28;20191;-57
2022/04/25 04:51:46;;;;;;;10.00;7.73;;;8.30;1.00;;;;;;5059277;28;20306;-57
2022/04/25 04:54:13;;;;;;;11.00;8.43;;;8.40;1.00;;;;;;5065004;28;20583;-56
2022/04/25 04:56:40;;;;;;;8.50;7.00;;;8.50;1.00;;;;;;5048220;28;20202;-57
2022/04/25 04:59:07;;;;;;;9.77;6.63;;;8.60;1.00;;;;;;5056110;28;20697;-57
2022/04/25 05:01:34;;;;;;;14.57;8.93;;;8.70;1.00;;;;;;5064607;28;20199;-56
2022/04/25 05:04:01;;;;;;;9.70;7.30;;;8.70;1.00;;;;;;5052682;28;20227;-57
2022/04/25 05:06:28;;;;;;;8.83;6.53;;;8.70;1.00;;;;;;5064827;28;20226;-57
2022/04/25 05:08:55;;;;;;;9.57;6.93;;;8.80;1.00;;;;;;5063572;28;20327;-58
2022/04/25 05:11:22;;;;;;;6.93;6.17;;;8.90;1.00;;;;;;5049180;28;20302;-57
2022/04/25 05:13:49;;;;;;;9.60;7.43;;;8.90;1.00;;;;;;5062957;28;20775;-56
2022/04/25 05:16:16;;;;;;;7.50;6.37;;;8.90;1.00;;;;;;5062712;28;20589;-56
2022/04/25 05:18:44;;;;;;;7.17;6.47;;;8.90;1.00;;;;;;5066410;28;20198;-57
2022/04/25 05:21:13;;;;;;;7.10;6.40;;;9.10;1.00;;;;;;5066970;28;20263;-57
2022/04/25 05:23:42;;;;;;;9.33;6.90;;;9.20;99.90;;;;;;5058342;28;20205;-57
2022/04/25 05:26:09;;;;;;;8.23;6.87;;;9.20;99.90;;;;;;5065277;28;20594;-57
2022/04/25 05:28:36;;;;;;;9.30;7.37;;;9.30;99.90;;;;;;5049680;28;20764;-57
2022/04/25 05:31:03;;;;;;;7.70;6.90;;;9.00;1.00;;;;;;5048918;28;21103;-57
2022/04/25 05:33:33;;;;;;;8.97;7.43;;;9.00;1.00;;;;;;5046965;28;20286;-58
2022/04/25 05:36:00;;;;;;;9.17;6.93;;;8.90;1.00;;;;;;5064464;28;20203;-58
2022/04/25 05:38:27;;;;;;;9.43;7.20;;;8.90;1.00;;;;;;5049175;28;20202;-58
2022/04/25 05:40:55;;;;;;;11.50;7.63;;;8.80;1.00;;;;;;5041033;28;20322;-58
2022/04/25 05:43:23;;;;;;;9.40;7.60;;;8.80;1.00;;;;;;5065884;28;20195;-58
2022/04/25 05:45:50;;;;;;;8.10;7.03;;;8.80;1.00;;;;;;5068373;28;20310;-58
2022/04/25 05:53:48;;;;;;;10.73;8.80;;;8.90;1.00;;;;;;5065386;28;20219;-58
2022/04/25 05:56:15;;;;;;;12.03;8.87;;;9.10;1.00;;;;;;5062616;28;20199;-59
2022/04/25 05:58:42;;;;;;;11.70;9.37;;;9.10;1.00;;;;;;5066272;28;20191;-57
2022/04/25 06:01:09;;;;;;;10.70;9.30;;;9.20;1.00;;;;;;5067328;28;20658;-58
2022/04/25 06:03:36;;;;;;;11.97;9.20;;;9.50;1.00;;;;;;5064713;28;20290;-58
2022/04/25 06:06:03;;;;;;;11.07;9.40;;;9.60;99.90;;;;;;5049463;28;20237;-59
2022/04/25 06:08:30;;;;;;;10.90;9.73;;;9.50;99.90;;;;;;5066004;28;20209;-58
2022/04/25 06:10:57;;;;;;;11.87;9.93;;;9.50;1.00;;;;;;5065650;28;20211;-58
2022/04/25 06:13:25;;;;;;;13.27;10.53;;;9.60;99.90;;;;;;5049301;28;20221;-57
2022/04/25 06:15:52;;;;;;;11.80;9.97;;;9.60;99.90;;;;;;5065312;28;20187;-58
2022/04/25 06:18:19;;;;;;;12.80;11.00;;;9.60;99.90;;;;;;5067320;28;20194;-57
2022/04/25 06:20:46;;;;;;;13.73;11.00;;;10.10;99.90;;;;;;5053443;28;20195;-59
2022/04/25 06:23:13;;;;;;;13.87;10.60;;;10.40;99.90;;;;;;5070916;28;20198;-57
2022/04/25 06:25:40;;;;;;;14.20;10.37;;;10.20;99.90;;;;;;5067591;28;20394;-57
2022/04/25 06:28:07;;;;;;;13.03;11.07;;;10.20;99.90;;;;;;5069032;28;20696;-57
2022/04/25 06:30:35;;;;;;;14.23;11.10;;;10.20;99.90;;;;;;5066491;28;21102;-57
2022/04/25 06:33:02;;;;;;;14.43;10.90;;;10.50;99.90;;;;;;5049015;28;20198;-58
2022/04/25 06:35:30;;;;;;;12.70;10.90;;;11.40;1.00;;;;;;5065805;28;20202;-58
2022/04/25 06:37:57;;;;;;;14.97;11.57;;;11.60;1.00;;;;;;5050806;28;20218;-57
2022/04/25 06:40:24;;;;;;;11.73;10.27;;;11.20;1.00;;;;;;5068752;28;20322;-57
2022/04/25 06:42:52;;;;;;;12.87;11.53;;;10.80;3.70;;;;;;5066002;28;20199;-57
2022/04/25 06:45:19;;;;;;;16.67;13.50;;;10.80;70.20;;;;;;5065511;28;20252;-57
2022/04/25 06:47:47;;;;;;;14.53;12.20;;;10.70;26.70;;;;;;5068385;28;20195;-58
2022/04/25 06:50:14;;;;;;;15.90;12.73;;;10.70;93.50;;;;;;5067791;28;20210;-58
2022/04/25 06:52:41;;;;;;;14.83;12.90;;;10.70;99.90;;;;;;5043270;28;20231;-57
2022/04/25 06:55:08;;;;;;;15.90;12.33;;;10.60;99.90;;;;;;5057643;28;20566;-56
2022/04/25 06:57:36;;;;;;;14.13;12.43;;;10.50;99.90;;;;;;5068749;28;20222;-57
2022/04/25 07:00:05;;;;;;;15.23;12.73;;;10.50;99.90;;;;;;5048080;28;20219;-57
2022/04/25 07:02:52;;;;;;;17.93;14.50;;;10.40;99.90;;;;;;5045667;28;20696;-56
2022/04/25 07:05:19;;;;;;;20.37;17.03;;;10.10;99.90;;;;;;5067010;28;20210;-57
2022/04/25 07:07:49;;;;;;;19.77;16.40;;;10.10;99.90;;;;;;5069480;28;20202;-57
2022/04/25 07:10:16;;;;;;;20.47;15.97;;;10.00;99.90;;;;;;5068466;28;20203;-56
2022/04/25 07:12:43;;;;;;;19.47;16.00;;;9.90;99.90;;;;;;5068338;28;20218;-57
2022/04/25 07:15:10;;;;;;;20.30;15.30;;;10.00;99.90;;;;;;5069375;28;20187;-57
2022/04/25 07:17:37;;;;;;;16.37;14.17;;;10.10;99.90;;;;;;5048930;28;20201;-57
2022/04/25 07:20:04;;;;;;;19.10;15.50;;;10.10;99.90;;;;;;5066879;28;20191;-57
2022/04/25 07:30:51;;;;;;;21.43;16.13;;;10.40;92.30;;;;;;5066488;28;20253;-58
2022/04/25 07:33:20;;;;;;;19.13;15.90;;;10.20;99.90;;;;;;5063216;28;20286;-58
2022/04/25 07:35:47;;;;;;;20.70;16.40;;;10.20;99.90;;;;;;5065471;28;20222;-58
2022/04/25 07:38:15;;;;;;;20.63;15.67;;;10.20;99.90;;;;;;5065690;28;20651;-58
2022/04/25 07:40:43;;;;;;;24.50;17.40;;;10.00;99.90;;;;;;5065664;28;20254;-58
2022/04/25 07:43:12;;;;;;;20.10;17.23;;;10.20;99.90;;;;;;5047480;28;20711;-58
2022/04/25 07:45:39;;;;;;;18.83;15.60;;;10.40;99.90;;;;;;5065036;28;20233;-58
2022/04/25 07:48:09;;;;;;;18.97;15.43;;;10.60;99.90;;;;;;5063917;28;20225;-58
2022/04/25 07:50:37;;;;;;;18.90;14.63;;;10.80;65.60;;;;;;5065861;28;20287;-58
2022/04/25 07:53:04;;;;;;;19.83;14.20;;;10.80;82.20;;;;;;5063632;28;20250;-58
2022/04/25 07:55:32;;;;;;;16.80;14.23;;;10.60;76.20;;;;;;5065961;28;20620;-58
2022/04/25 07:57:59;;;;;;;18.73;15.67;;;10.50;99.90;;;;;;5066115;28;20697;-58
2022/04/25 08:00:27;;;;;;;16.17;14.13;;;10.30;99.90;;;;;;5063493;28;20657;-58
2022/04/25 08:02:54;;;;;;;14.60;13.10;;;10.50;99.90;;;;;;5047073;28;20195;-57
2022/04/25 08:05:21;;;;;;;16.73;13.30;;;10.50;67.60;;;;;;5061187;28;20191;-58
2022/04/25 08:07:48;;;;;;;15.30;13.63;;;10.20;99.90;;;;;;5064972;28;20494;-58
2022/04/25 08:10:15;;;;;;;17.00;14.87;;;10.20;99.90;;;;;;5066233;28;20199;-58
2022/04/25 08:18:14;;;;;;;13.97;11.17;;;10.20;99.90;;;;;;5063900;28;20248;-57
2022/04/25 08:20:42;;;;;;;15.23;11.63;;;10.20;99.90;;;;;;5064653;28;20191;-57
2022/04/25 08:23:11;;;;;;;12.80;11.40;;;10.20;99.90;;;;;;5049549;28;20253;-57
2022/04/25 08:25:40;;;;;;;13.30;11.90;;;10.30;99.90;;;;;;5063722;28;20202;-57
2022/04/25 08:28:08;;;;;;;12.53;10.93;;;10.20;99.90;;;;;;5058988;28;20198;-57
2022/04/25 08:30:35;;;;;;;14.20;12.03;;;10.20;99.90;;;;;;5047919;28;20203;-58
2022/04/25 08:33:02;;;;;;;13.67;10.80;;;10.10;99.90;;;;;;5063258;28;20619;-57
2022/04/25 08:35:29;;;;;;;13.77;10.77;;;10.20;99.90;;;;;;5066795;28;20191;-57
2022/04/25 08:37:56;;;;;;;14.07;11.00;;;10.20;99.90;;;;;;5063696;28;20211;-57
2022/04/25 08:40:23;;;;;;;13.77;10.43;;;10.20;99.90;;;;;;5063805;28;20250;-57
2022/04/25 08:42:53;;;;;;;12.10;10.70;;;10.20;99.90;;;;;;5047568;28;20210;-57
2022/04/25 08:45:22;;;;;;;13.03;10.40;;;10.20;99.90;;;;;;5063395;28;20818;-57
2022/04/25 08:48:00;;;;;;;14.93;10.80;;;10.20;99.90;;;;;;5027795;28;20222;-57
2022/04/25 08:50:28;;;;;;;13.00;9.90;;;10.40;99.90;;;;;;5064669;28;20233;-57
2022/04/25 08:52:56;;;;;;;10.00;9.00;;;10.50;99.90;;;;;;5066849;28;20207;-58
2022/04/25 08:55:24;;;;;;;9.67;8.47;;;10.70;99.90;;;;;;5065178;28;20240;-57
2022/04/25 08:57:55;;;;;;;9.20;8.23;;;11.00;12.20;;;;;;5030162;28;20236;-57
2022/04/25 09:00:22;;;;;;;10.73;7.67;;;11.60;1.00;;;;;;5064051;28;20656;-57
2022/04/25 09:02:49;;;;;;;8.33;6.73;;;12.10;1.00;;;;;;5063697;28;20240;-57
2022/04/25 09:05:18;;;;;;;9.87;7.20;;;12.20;1.00;;;;;;5065373;28;20264;-57
2022/04/25 09:07:45;;;;;;;8.33;7.47;;;12.30;1.00;;;;;;5047494;28;20651;-57
2022/04/25 09:10:15;;;;;;;7.53;6.13;;;12.20;1.00;;;;;;5065420;28;20645;-57
2022/04/25 09:12:46;;;;;;;7.40;6.60;;;12.80;99.90;;;;;;5065207;28;20661;-57
2022/04/25 09:15:22;;;;;;;6.93;6.27;;;13.20;99.90;;;;;;5067286;28;20194;-58
2022/04/25 09:17:57;;;;;;;6.53;5.93;;;13.30;99.90;;;;;;5062577;28;20653;-57
2022/04/25 09:20:25;;;;;;;7.00;5.77;;;13.20;99.90;;;;;;5041786;28;20195;-57
2022/04/25 09:22:55;;;;;;;6.77;6.17;;;12.50;99.90;;;;;;5033762;28;20212;-57
2022/04/25 09:25:22;;;;;;;6.83;6.20;;;12.20;1.00;;;;;;5047579;28;21265;-57
2022/04/25 09:28:14;;;;;;;6.70;6.10;;;12.00;1.00;;;;;;5065095;28;20205;-57
2022/04/25 09:30:56;;;;;;;7.00;6.30;;;11.80;1.00;;;;;;5060704;28;20280;-57
2022/04/25 09:33:23;;;;;;;7.43;6.40;;;11.70;1.00;;;;;;5062279;28;20211;-57
2022/04/25 09:35:57;;;;;;;9.40;6.73;;;11.60;1.00;;;;;;5063939;28;20199;-58
2022/04/25 09:38:32;;;;;;;7.33;6.63;;;11.70;1.00;;;;;;5047081;28;20221;-58
2022/04/25 09:41:00;;;;;;;7.40;6.40;;;11.70;1.00;;;;;;5043242;28;20229;-58
2022/04/25 09:43:30;;;;;;;7.37;6.37;;;11.80;1.00;;;;;;5061684;28;20660;-58
2022/04/25 09:46:02;;;;;;;6.40;5.80;;;12.00;1.00;;;;;;5043334;28;20207;-58
2022/04/25 09:48:30;;;;;;;8.03;6.60;;;12.20;1.00;;;;;;5061843;28;20286;-57
2022/04/25 09:51:04;;;;;;;6.87;6.17;;;12.10;1.00;;;;;;5044487;28;20238;-58
2022/04/25 09:53:52;;;;;;;7.23;6.53;;;12.10;1.00;;;;;;5060708;28;20688;-58
2022/04/25 09:56:22;;;;;;;7.70;6.57;;;12.10;1.00;;;;;;5069687;28;20194;-57
2022/04/25 09:59:01;;;;;;;7.10;6.40;;;12.30;1.00;;;;;;5069629;28;20195;-57
2022/04/25 10:01:30;;;;;;;7.97;7.20;;;12.20;1.00;;;;;;5069174;28;20194;-57
2022/04/25 10:03:57;;;;;;;8.10;6.60;;;12.10;1.00;;;;;;5050950;28;20203;-57
2022/04/25 10:06:27;;;;;;;9.17;7.50;;;12.20;1.00;;;;;;5067140;28;20199;-58
2022/04/25 10:08:54;;;;;;;8.10;7.30;;;12.20;1.00;;;;;;5064568;28;20236;-58
2022/04/25 10:11:23;;;;;;;8.23;6.93;;;12.20;1.00;;;;;;5068687;28;20198;-58
2022/04/25 10:13:50;;;;;;;9.33;7.33;;;12.30;1.00;;;;;;5064800;28;20752;-57
2022/04/25 10:16:21;;;;;;;8.87;7.30;;;12.60;1.00;;;;;;5069512;28;20286;-57
2022/04/25 10:18:50;;;;;;;8.97;8.07;;;12.70;1.00;;;;;;5070804;28;20886;-57
2022/04/25 10:21:17;;;;;;;9.10;7.70;;;12.20;1.00;;;;;;5075323;28;20252;-58
2022/04/25 10:23:44;;;;;;;11.07;9.23;;;12.00;1.00;;;;;;5070912;28;20555;-58
2022/04/25 10:26:12;;;;;;;9.60;8.03;;;12.00;1.00;;;;;;5067173;28;20194;-58
2022/04/25 10:28:52;;;;;;;9.53;8.17;;;11.90;1.00;;;;;;5069287;28;20194;-57
2022/04/25 10:31:29;;;;;;;10.93;9.67;;;11.90;1.00;;;;;;5065051;28;20198;-58
2022/04/25 10:33:59;;;;;;;11.00;8.50;;;12.20;1.00;;;;;;5061418;28;20206;-57
2022/04/25 10:36:42;;;;;;;10.03;8.60;;;12.30;1.00;;;;;;5064186;28;20225;-57
2022/04/25 10:39:15;;;;;;;9.73;8.57;;;12.30;1.00;;;;;;5063000;28;20636;-58
2022/04/25 10:44:30;;;;;;;12.33;9.77;;;12.10;1.00;;;;;;5066622;28;20183;-57
2022/04/25 10:47:03;;;;;;;10.50;8.93;;;12.20;1.00;;;;;;5048631;28;20187;-57
2022/04/25 10:49:33;;;;;;;12.83;9.20;;;12.00;1.00;;;;;;5063297;28;20191;-57
2022/04/25 10:52:02;;;;;;;9.30;8.40;;;12.20;1.00;;;;;;5049505;28;20685;-57
2022/04/25 10:54:47;;;;;;;9.23;8.33;;;12.10;1.00;;;;;;5045860;28;20214;-57
2022/04/25 10:57:15;;;;;;;10.17;8.90;;;12.40;1.00;;;;;;5063819;28;20238;-58
2022/04/25 10:59:42;;;;;;;10.20;8.90;;;12.60;1.00;;;;;;5062757;28;20191;-58
2022/04/25 11:02:36;;;;;;;10.80;9.70;;;12.60;1.00;;;;;;5060266;28;20209;-57
2022/04/25 11:05:12;;;;;;;11.67;8.97;;;12.70;11.60;;;;;;5045959;28;20214;-58
2022/04/25 11:07:40;;;;;;;11.00;9.90;;;12.80;37.50;;;;;;5061238;28;20447;-57
2022/04/25 11:10:45;;;;;;;12.17;9.37;;;13.00;99.90;;;;;;5058835;28;20223;-58
2022/04/25 11:13:20;;;;;;;11.57;8.87;;;13.30;38.70;;;;;;5057863;28;20215;-58
2022/04/25 11:15:52;;;;;;;11.47;9.57;;;13.10;1.00;;;;;;5057943;28;20201;-57
2022/04/25 11:18:33;;;;;;;9.90;8.90;;;12.80;1.00;;;;;;5060122;28;20252;-58
2022/04/25 11:21:05;;;;;;;10.03;8.30;;;12.90;35.40;;;;;;5060575;28;20213;-57
2022/04/25 11:23:33;;;;;;;9.43;8.43;;;12.90;1.00;;;;;;5063692;28;20187;-58
2022/04/25 11:26:06;;;;;;;11.80;9.50;;;12.90;99.90;;;;;;5063311;28;20186;-58
2022/04/25 11:29:04;;;;;;;10.27;9.20;;;12.80;99.90;;;;;;5059979;28;20192;-58
2022/04/25 11:31:31;;;;;;;10.97;9.20;;;12.60;99.90;;;;;;5060169;28;20218;-58
2022/04/25 11:34:01;;;;;;;9.67;8.67;;;12.40;99.90;;;;;;5061974;28;20295;-57
2022/04/25 11:36:30;;;;;;;8.27;7.13;;;12.40;99.90;;;;;;5060802;28;20244;-57
2022/04/25 11:41:46;;;;;;;10.30;7.50;;;12.50;99.90;;;;;;5060572;28;20226;-56
2022/04/25 11:44:13;;;;;;;8.77;7.77;;;12.20;99.90;;;;;;5060411;28;20245;-57
2022/04/25 11:46:41;;;;;;;8.73;7.83;;;12.30;99.90;;;;;;5060169;28;20209;-57
2022/04/25 11:49:09;;;;;;;9.23;8.03;;;12.20;99.90;;;;;;5044579;28;20202;-57
2022/04/25 11:51:38;;;;;;;8.90;7.77;;;12.10;99.90;;;;;;5068818;28;20191;-57
2022/04/25 11:54:09;;;;;;;10.77;8.43;;;12.10;1.00;;;;;;5069319;28;20210;-57
2022/04/25 11:56:39;;;;;;;9.13;7.93;;;12.20;1.00;;;;;;5066066;28;20191;-58
2022/04/25 11:59:14;;;;;;;8.03;6.93;;;12.50;1.00;;;;;;5065096;28;20256;-57
2022/04/25 12:01:47;;;;;;;8.23;7.33;;;12.50;99.90;;;;;;5069451;28;20244;-57
2022/04/25 12:04:18;;;;;;;7.00;6.30;;;12.50;99.90;;;;;;5071330;28;20187;-57
2022/04/25 12:06:53;;;;;;;7.30;6.37;;;12.50;1.00;;;;;;5070118;28;20190;-57
2022/04/25 12:15:42;;;;;;;7.50;6.80;;;12.50;76.20;;;;;;5062279;28;20203;-59
2022/04/25 12:18:18;;;;;;;7.03;6.43;;;12.70;93.60;;;;;;5062421;28;20273;-57
2022/04/25 12:21:02;;;;;;;8.03;7.07;;;12.40;99.90;;;;;;5066901;28;20250;-56
2022/04/25 12:23:36;;;;;;;7.67;6.97;;;12.60;99.90;;;;;;5069236;28;20526;-57
2022/04/25 12:26:06;;;;;;;9.07;7.00;;;12.90;99.90;;;;;;5062880;28;20194;-59
2022/04/25 12:28:37;;;;;;;7.47;6.20;;;13.20;99.90;;;;;;5062270;28;20194;-58
2022/04/25 12:31:09;;;;;;;7.50;6.73;;;13.00;1.00;;;;;;5068139;28;20190;-58
2022/04/25 12:33:37;;;;;;;9.33;7.03;;;13.10;1.00;;;;;;5067070;28;20238;-61
2022/04/25 12:36:24;;;;;;;7.27;6.57;;;13.10;1.00;;;;;;5063123;28;20249;-57
2022/04/25 12:38:57;;;;;;;7.30;6.10;;;13.00;35.40;;;;;;5067368;28;20227;-58
2022/04/25 12:41:30;;;;;;;8.43;6.90;;;13.50;1.00;;;;;;5063809;28;20229;-58
2022/04/25 12:44:11;;;;;;;6.50;5.90;;;13.50;1.00;;;;;;5047674;28;20194;-57
2022/04/25 12:46:42;;;;;;;7.57;6.57;;;13.10;1.00;;;;;;5046350;28;20216;-59
2022/04/25 12:49:12;;;;;;;7.70;6.93;;;13.40;1.00;;;;;;5053207;28;20287;-58
2022/04/25 12:51:45;;;;;;;7.67;6.17;;;13.70;1.00;;;;;;5044457;28;20192;-58
2022/04/25 12:54:24;;;;;;;6.90;6.30;;;13.90;1.00;;;;;;5046449;28;20221;-57
2022/04/25 12:56:55;;;;;;;6.23;5.63;;;14.10;1.00;;;;;;5049761;28;20253;-59
2022/04/25 12:59:24;;;;;;;6.43;5.70;;;14.40;1.00;;;;;;5048239;28;20219;-60
2022/04/25 13:02:12;;;;;;;7.00;6.30;;;14.60;99.90;;;;;;5049050;28;20708;-58
2022/04/25 13:04:52;;;;;;;6.17;5.57;;;14.10;1.00;;;;;;5044958;28;20192;-58
2022/04/25 13:07:21;;;;;;;6.70;5.40;;;13.90;1.00;;;;;;5051850;28;20260;-58
2022/04/25 13:09:48;;;;;;;7.20;6.43;;;13.80;1.00;;;;;;5049854;28;20946;-57
2022/04/25 13:12:18;;;;;;;7.27;6.60;;;13.80;99.90;;;;;;5046102;28;20195;-57
2022/04/25 13:14:45;;;;;;;7.20;6.40;;;13.60;1.00;;;;;;5043996;28;20902;-58
2022/04/25 13:17:13;;;;;;;7.87;6.60;;;13.60;1.00;;;;;;5040936;28;20195;-57
2022/04/25 13:19:40;;;;;;;7.00;6.03;;;14.10;99.90;;;;;;5043675;28;20753;-58
2022/04/25 13:22:08;;;;;;;6.43;5.83;;;14.20;99.90;;;;;;5048220;28;20306;-58
2022/04/25 13:24:36;;;;;;;6.43;5.83;;;14.40;99.90;;;;;;5063285;28;20285;-57
2022/04/25 13:27:07;;;;;;;7.70;6.07;;;14.50;99.90;;;;;;5049666;28;20199;-57
2022/04/25 13:29:34;;;;;;;6.40;5.80;;;14.50;99.90;;;;;;5054130;28;20208;-58
2022/04/25 13:32:03;;;;;;;6.63;5.90;;;14.20;99.90;;;;;;5052156;28;20217;-58
2022/04/25 13:34:31;;;;;;;6.23;5.47;;;14.50;99.90;;;;;;5052063;28;20695;-57
2022/04/25 13:37:02;;;;;;;6.53;5.93;;;14.50;99.90;;;;;;5051964;28;20682;-57
2022/04/25 13:39:30;;;;;;;6.77;5.47;;;14.80;99.90;;;;;;5051686;28;20221;-57
2022/04/25 13:42:00;;;;;;;5.30;4.80;;;14.90;99.90;;;;;;5067181;28;20242;-57
2022/04/25 13:44:27;;;;;;;5.87;5.30;;;14.60;99.90;;;;;;5068892;28;20798;-57